createdAt,value
2022-09-17T00:01:24.178Z,98180.72
2022-09-17T00:03:52.783Z,98183.91
2022-09-17T00:06:22.243Z,98182.97
2022-09-17T00:08:48.955Z,98181.31
2022-09-17T00:11:24.804Z,98182.13
2022-09-17T00:13:53.149Z,98179.31
2022-09-17T00:16:26.595Z,98176.84
2022-09-17T00:18:53.253Z,98181.31
2022-09-17T00:21:20.449Z,98185.91
2022-09-17T00:23:47.343Z,98194.16
2022-09-17T00:26:16.373Z,98196.94
2022-09-17T00:28:45.460Z,98186.59
2022-09-17T00:31:12.231Z,98199.59
2022-09-17T00:33:39.049Z,98206.44
2022-09-17T00:36:06.343Z,98211.97
2022-09-17T00:38:33.997Z,98209.09
2022-09-17T00:41:02.028Z,98211.03
2022-09-17T00:43:37.098Z,98217.16
2022-09-17T00:46:10.895Z,98206.72
2022-09-17T00:48:37.637Z,98216.34
2022-09-17T00:51:06.700Z,98212.97
2022-09-17T00:53:33.273Z,98214.13
2022-09-17T00:56:23.803Z,98209.78
2022-09-17T00:58:52.785Z,98217.06
2022-09-17T01:01:19.707Z,98224.56
2022-09-17T01:03:46.701Z,98222.75
2022-09-17T01:06:34.575Z,98221.25
2022-09-17T01:09:36.423Z,98212.34
2022-09-17T01:12:15.174Z,98218.16
2022-09-17T01:15:03.510Z,98217.59
2022-09-17T01:17:54.735Z,98220.13
2022-09-17T01:20:30.478Z,98213.41
2022-09-17T01:23:18.828Z,98213.00
2022-09-17T01:26:13.524Z,98210.06
2022-09-17T01:28:55.262Z,98209.22
2022-09-17T01:31:43.187Z,98212.44
2022-09-17T01:34:28.702Z,98211.88
2022-09-17T01:37:06.957Z,98215.94
2022-09-17T01:40:05.735Z,98219.16
2022-09-17T01:42:51.179Z,98227.66
2022-09-17T01:45:19.972Z,98214.44
2022-09-17T01:47:55.762Z,98207.88
2022-09-17T01:50:28.008Z,98213.84
2022-09-17T01:52:56.822Z,98216.63
2022-09-17T01:55:29.950Z,98213.97
2022-09-17T01:58:03.957Z,98219.28
2022-09-17T02:00:30.727Z,98218.47
2022-09-17T02:03:02.821Z,98218.31
2022-09-17T02:05:38.483Z,98217.34
2022-09-17T02:08:25.529Z,98218.16
2022-09-17T02:11:04.714Z,98215.38
2022-09-17T02:13:38.362Z,98220.13
2022-09-17T02:16:17.012Z,98220.38
2022-09-17T02:18:53.623Z,98225.66
2022-09-17T02:21:53.217Z,98220.69
2022-09-17T02:24:22.757Z,98226.13
2022-09-17T02:26:58.132Z,98219.56
2022-09-17T02:29:31.785Z,98227.47
2022-09-17T02:31:58.449Z,98228.75
2022-09-17T02:34:27.777Z,98227.63
2022-09-17T02:36:55.568Z,98224.56
2022-09-17T02:39:22.424Z,98226.38
2022-09-17T02:41:51.880Z,98229.16
2022-09-17T02:44:24.920Z,98225.69
2022-09-17T02:47:29.011Z,98236.53
2022-09-17T02:49:55.543Z,98238.47
2022-09-17T02:52:34.504Z,98239.75
2022-09-17T02:55:12.499Z,98240.16
2022-09-17T02:57:59.304Z,98241.66
2022-09-17T03:00:28.432Z,98237.34
2022-09-17T03:03:04.359Z,98239.31
2022-09-17T03:05:32.033Z,98241.41
2022-09-17T03:08:00.321Z,98236.13
2022-09-17T03:10:33.547Z,98244.59
2022-09-17T03:13:00.126Z,98231.25
2022-09-17T03:15:26.968Z,98239.72
2022-09-17T03:17:53.722Z,98240.72
2022-09-17T03:20:20.413Z,98239.59
2022-09-17T03:22:47.300Z,98236.81
2022-09-17T03:25:14.127Z,98242.66
2022-09-17T03:27:41.052Z,98245.19
2022-09-17T03:30:09.748Z,98233.06
2022-09-17T03:32:36.300Z,98244.63
2022-09-17T03:35:02.938Z,98241.16
2022-09-17T03:37:32.863Z,98241.53
2022-09-17T03:40:00.008Z,98245.88
2022-09-17T03:42:26.618Z,98252.13
2022-09-17T03:44:53.238Z,98245.44
2022-09-17T03:47:19.773Z,98252.41
2022-09-17T03:49:46.381Z,98251.84
2022-09-17T03:52:12.958Z,98253.13
2022-09-17T03:54:39.829Z,98254.09
2022-09-17T03:57:06.469Z,98248.91
2022-09-17T03:59:33.133Z,98245.03
2022-09-17T04:01:59.873Z,98246.56
2022-09-17T04:04:26.557Z,98256.84
2022-09-17T04:06:53.324Z,98255.22
2022-09-17T04:09:19.983Z,98261.59
2022-09-17T04:11:46.613Z,98263.97
2022-09-17T04:14:13.218Z,98261.75
2022-09-17T04:16:39.774Z,98266.63
2022-09-17T04:19:06.482Z,98270.53
2022-09-17T04:21:33.054Z,98266.88
2022-09-17T04:24:00.067Z,98258.44
2022-09-17T04:26:26.636Z,98264.94
2022-09-17T04:28:53.238Z,98272.72
2022-09-17T04:31:19.853Z,98276.09
2022-09-17T04:33:46.454Z,98277.75
2022-09-17T04:36:13.016Z,98271.50
2022-09-17T04:38:39.601Z,98281.66
2022-09-17T04:41:09.273Z,98285.94
2022-09-17T04:43:35.879Z,98281.94
2022-09-17T04:46:02.609Z,98279.97
2022-09-17T04:48:29.170Z,98283.22
2022-09-17T04:50:55.794Z,98283.88
2022-09-17T04:53:22.386Z,98280.28
2022-09-17T04:55:48.962Z,98281.38
2022-09-17T04:58:15.523Z,98272.75
2022-09-17T05:00:42.617Z,98272.75
2022-09-17T05:03:09.288Z,98280.69
2022-09-17T05:05:35.949Z,98276.66
2022-09-17T05:08:02.719Z,98280.69
2022-09-17T05:10:29.414Z,98292.25
2022-09-17T05:12:56.999Z,98296.13
2022-09-17T05:15:25.342Z,98287.22
2022-09-17T05:17:52.193Z,98288.22
2022-09-17T05:20:19.275Z,98286.53
2022-09-17T05:22:48.441Z,98287.66
2022-09-17T05:25:17.264Z,98295.59
2022-09-17T05:27:44.132Z,98295.59
2022-09-17T05:30:12.006Z,98291.72
2022-09-17T05:32:39.202Z,98295.03
2022-09-17T05:35:06.594Z,98301.16
2022-09-17T05:37:33.311Z,98301.75
2022-09-17T05:40:00.228Z,98301.03
2022-09-17T05:42:26.871Z,98311.31
2022-09-17T05:44:53.410Z,98316.63
2022-09-17T05:47:19.992Z,98311.50
2022-09-17T05:49:46.545Z,98314.25
2022-09-17T05:52:13.201Z,98314.25
2022-09-17T05:54:39.868Z,98322.63
2022-09-17T05:57:06.547Z,98325.28
2022-09-17T05:59:33.451Z,98334.88
2022-09-17T06:02:00.160Z,98321.66
2022-09-17T06:04:27.710Z,98330.13
2022-09-17T06:06:56.198Z,98325.97
2022-09-17T06:09:22.757Z,98330.97
2022-09-17T06:11:49.402Z,98332.66
2022-09-17T06:14:16.427Z,98324.03
2022-09-17T06:16:43.120Z,98336.56
2022-09-17T06:19:09.734Z,98336.00
2022-09-17T06:21:36.361Z,98340.91
2022-09-17T06:24:03.113Z,98344.09
2022-09-17T06:26:29.854Z,98357.47
2022-09-17T06:28:56.424Z,98353.84
2022-09-17T06:31:23.063Z,98353.28
2022-09-17T06:33:51.187Z,98364.28
2022-09-17T06:36:17.833Z,98362.31
2022-09-17T06:38:45.621Z,98366.94
2022-09-17T06:41:13.430Z,98361.81
2022-09-17T06:43:40.122Z,98362.47
2022-09-17T06:46:09.106Z,98365.69
2022-09-17T06:48:37.452Z,98362.31
2022-09-17T06:51:07.109Z,98355.38
2022-09-17T06:53:34.446Z,98354.66
2022-09-17T06:56:06.296Z,98355.94
2022-09-17T06:58:34.208Z,98364.31
2022-09-17T07:01:01.903Z,98363.34
2022-09-17T07:03:30.182Z,98364.69
2022-09-17T07:05:57.816Z,98373.66
2022-09-17T07:08:26.108Z,98367.63
2022-09-17T07:10:56.535Z,98367.22
2022-09-17T07:13:23.851Z,98369.44
2022-09-17T07:15:58.277Z,98367.50
2022-09-17T07:18:25.825Z,98366.94
2022-09-17T07:20:57.282Z,98374.75
2022-09-17T07:23:25.621Z,98371.41
2022-09-17T07:25:53.573Z,98373.88
2022-09-17T07:28:21.017Z,98370.53
2022-09-17T07:30:47.655Z,98366.34
2022-09-17T07:33:16.410Z,98359.66
2022-09-17T07:35:43.085Z,98375.56
2022-09-17T07:38:09.679Z,98363.81
2022-09-17T07:40:36.274Z,98369.38
2022-09-17T07:43:02.876Z,98365.75
2022-09-17T07:45:29.682Z,98365.47
2022-09-17T07:47:56.249Z,98374.63
2022-09-17T07:50:22.891Z,98370.31
2022-09-17T07:52:49.517Z,98383.59
2022-09-17T07:55:16.708Z,98386.38
2022-09-17T07:57:43.285Z,98371.31
2022-09-17T08:00:10.443Z,98375.94
2022-09-17T08:02:37.179Z,98376.22
2022-09-17T08:05:04.125Z,98379.59
2022-09-17T08:07:30.721Z,98389.31
2022-09-17T08:09:57.304Z,98390.88
2022-09-17T08:12:23.984Z,98394.09
2022-09-17T08:14:50.521Z,98391.56
2022-09-17T08:17:17.462Z,98392.66
2022-09-17T08:19:44.057Z,98396.44
2022-09-17T08:22:10.618Z,98402.28
2022-09-17T08:24:37.205Z,98399.34
2022-09-17T08:27:03.952Z,98392.31
2022-09-17T08:29:34.986Z,98402.53
2022-09-17T08:32:02.036Z,98397.41
2022-09-17T08:34:28.592Z,98391.47
2022-09-17T08:36:55.126Z,98398.00
2022-09-17T08:39:21.692Z,98400.84
2022-09-17T08:42:03.109Z,98394.34
2022-09-17T08:44:41.206Z,98395.75
2022-09-17T08:47:37.882Z,98394.06
2022-09-17T08:50:07.759Z,98398.91
2022-09-17T08:52:50.018Z,98408.66
2022-09-17T08:55:34.963Z,98415.59
2022-09-17T08:58:39.921Z,98415.56
2022-09-17T09:01:12.629Z,98413.72
2022-09-17T09:03:54.295Z,98414.78
2022-09-17T09:06:27.234Z,98412.50
2022-09-17T09:09:03.892Z,98406.88
2022-09-17T09:11:31.536Z,98407.00
2022-09-17T09:14:50.697Z,98405.63
2022-09-17T09:17:21.558Z,98402.25
2022-09-17T09:19:49.914Z,98390.75
2022-09-17T09:22:45.451Z,98402.16
2022-09-17T09:25:29.482Z,98400.94
2022-09-17T09:28:26.475Z,98408.94
2022-09-17T09:31:30.901Z,98413.88
2022-09-17T09:33:58.498Z,98413.94
2022-09-17T09:36:29.814Z,98423.16
2022-09-17T09:39:04.489Z,98427.00
2022-09-17T09:41:40.638Z,98431.34
2022-09-17T09:44:13.269Z,98417.13
2022-09-17T09:46:49.228Z,98427.59
2022-09-17T09:49:36.453Z,98436.78
2022-09-17T09:52:10.869Z,98425.66
2022-09-17T09:54:55.945Z,98427.66
2022-09-17T09:57:47.565Z,98429.88
2022-09-17T10:00:36.791Z,98429.66
2022-09-17T10:03:23.553Z,98413.94
2022-09-17T10:06:10.993Z,98420.09
2022-09-17T10:08:40.271Z,98422.94
2022-09-17T10:11:18.083Z,98428.44
2022-09-17T10:13:44.645Z,98425.56
2022-09-17T10:16:20.086Z,98427.25
2022-09-17T10:18:48.613Z,98419.19
2022-09-17T10:21:23.380Z,98417.34
2022-09-17T10:23:51.048Z,98421.84
2022-09-17T10:26:24.100Z,98423.81
2022-09-17T10:28:53.769Z,98420.63
2022-09-17T10:31:20.900Z,98432.47
2022-09-17T10:33:53.297Z,98437.09
2022-09-17T10:36:42.554Z,98433.34
2022-09-17T10:39:44.577Z,98427.06
2022-09-17T10:42:12.376Z,98423.03
2022-09-17T10:44:50.537Z,98424.09
2022-09-17T10:47:31.022Z,98414.38
2022-09-17T10:50:31.080Z,98415.22
2022-09-17T10:53:01.681Z,98409.28
2022-09-17T10:55:34.828Z,98404.00
2022-09-17T10:58:07.590Z,98403.28
2022-09-17T11:00:34.246Z,98403.91
2022-09-17T11:03:32.999Z,98400.44
2022-09-17T11:05:59.714Z,98408.66
2022-09-17T11:08:32.536Z,98400.69
2022-09-17T11:11:09.545Z,98399.03
2022-09-17T11:14:01.527Z,98393.31
2022-09-17T11:16:34.315Z,98386.03
2022-09-17T11:19:10.418Z,98387.97
2022-09-17T11:21:54.921Z,98384.28
2022-09-17T11:24:36.496Z,98391.59
2022-09-17T11:27:15.496Z,98391.03
2022-09-17T11:30:05.147Z,98388.28
2022-09-17T11:32:37.366Z,98383.97
2022-09-17T11:35:12.065Z,98362.38
2022-09-17T11:37:49.143Z,98373.72
2022-09-17T11:40:48.073Z,98379.00
2022-09-17T11:43:17.857Z,98373.41
2022-09-17T11:46:20.150Z,98371.00
2022-09-17T11:49:05.302Z,98364.78
2022-09-17T11:51:39.814Z,98362.91
2022-09-17T11:54:08.957Z,98369.69
2022-09-17T11:56:42.942Z,98366.41
2022-09-17T11:59:32.440Z,98361.09
2022-09-17T12:02:05.579Z,98373.59
2022-09-17T12:04:57.024Z,98358.34
2022-09-17T12:08:11.286Z,98353.78
2022-09-17T12:10:49.690Z,98356.78
2022-09-17T12:13:48.583Z,98353.28
2022-09-17T12:16:30.449Z,98357.28
2022-09-17T12:19:01.141Z,98372.81
2022-09-17T12:21:38.040Z,98369.84
2022-09-17T12:24:26.879Z,98364.19
2022-09-17T12:27:21.776Z,98365.47
2022-09-17T12:30:19.264Z,98371.50
2022-09-17T12:33:09.941Z,98392.91
2022-09-17T12:36:04.034Z,98397.81
2022-09-17T12:38:35.269Z,98397.34
2022-09-17T12:41:10.927Z,98389.69
2022-09-17T12:43:49.545Z,98381.78
2022-09-17T12:46:21.888Z,98368.03
2022-09-17T12:49:10.132Z,98363.59
2022-09-17T12:52:03.528Z,98351.94
2022-09-17T12:55:07.584Z,98353.94
2022-09-17T12:57:43.392Z,98351.25
2022-09-17T13:00:15.021Z,98340.97
2022-09-17T13:02:44.053Z,98324.69
2022-09-17T13:05:19.559Z,98323.56
2022-09-17T13:07:55.161Z,98329.94
2022-09-17T13:10:55.897Z,98329.41
2022-09-17T13:13:43.865Z,98326.59
2022-09-17T13:16:37.321Z,98317.91
2022-09-17T13:19:24.815Z,98317.41
2022-09-17T13:22:07.114Z,98324.78
2022-09-17T13:24:34.986Z,98325.75
2022-09-17T13:27:04.156Z,98339.13
2022-09-17T13:29:46.152Z,98326.78
2022-09-17T13:32:38.935Z,98328.06
2022-09-17T13:35:11.541Z,98328.44
2022-09-17T13:37:58.690Z,98326.13
2022-09-17T13:40:32.581Z,98324.78
2022-09-17T13:43:10.518Z,98316.44
2022-09-17T13:45:59.915Z,98312.69
2022-09-17T13:48:28.646Z,98325.25
2022-09-17T13:50:55.590Z,98331.13
2022-09-17T13:53:26.973Z,98336.28
2022-09-17T13:56:01.961Z,98337.78
2022-09-17T13:58:33.993Z,98356.41
2022-09-17T14:01:13.039Z,98367.00
2022-09-17T14:03:44.612Z,98368.66
2022-09-17T14:06:11.477Z,98374.06
2022-09-17T14:08:44.207Z,98393.34
2022-09-17T14:11:23.186Z,98380.13
2022-09-17T14:13:50.584Z,98370.41
2022-09-17T14:16:33.812Z,98362.44
2022-09-17T14:19:15.426Z,98350.06
2022-09-17T14:22:06.495Z,98350.59
2022-09-17T14:24:37.703Z,98345.72
2022-09-17T14:27:42.617Z,98330.94
2022-09-17T14:30:12.528Z,98333.19
2022-09-17T14:33:01.279Z,98335.31
2022-09-17T14:35:48.267Z,98332.75
2022-09-17T14:38:44.898Z,98339.94
2022-09-17T14:41:11.495Z,98328.50
2022-09-17T14:43:41.485Z,98327.03
2022-09-17T14:46:13.796Z,98320.81
2022-09-17T14:48:40.487Z,98317.72
2022-09-17T14:51:18.958Z,98307.78
2022-09-17T14:53:47.031Z,98314.19
2022-09-17T14:56:19.757Z,98312.28
2022-09-17T14:58:53.130Z,98302.06
2022-09-17T15:01:31.114Z,98293.47
2022-09-17T15:04:12.704Z,98300.03
2022-09-17T15:06:40.696Z,98293.25
2022-09-17T15:09:15.895Z,98293.06
2022-09-17T15:11:45.262Z,98292.13
2022-09-17T15:14:22.226Z,98292.16
2022-09-17T15:16:51.317Z,98303.25
2022-09-17T15:19:28.282Z,98310.28
2022-09-17T15:21:57.399Z,98307.25
2022-09-17T15:24:44.083Z,98306.63
2022-09-17T15:27:45.364Z,98304.84
2022-09-17T15:30:20.234Z,98314.38
2022-09-17T15:32:54.088Z,98305.91
2022-09-17T15:35:22.521Z,98309.13
2022-09-17T15:38:18.583Z,98309.22
2022-09-17T15:40:41.202Z,98319.91
2022-09-17T15:43:29.548Z,98327.69
2022-09-17T15:45:58.295Z,98320.25
2022-09-17T15:48:27.565Z,98322.94
2022-09-17T15:50:58.882Z,98316.91
2022-09-17T15:53:31.092Z,98320.13
2022-09-17T15:56:13.216Z,98328.63
2022-09-17T15:58:42.621Z,98324.09
2022-09-17T16:01:18.682Z,98341.63
2022-09-17T16:03:45.421Z,98384.03
2022-09-17T16:06:17.756Z,98395.16
2022-09-17T16:08:47.405Z,98405.25
2022-09-17T16:11:14.685Z,98410.44
2022-09-17T16:13:41.564Z,98387.00
2022-09-17T16:16:15.865Z,98399.97
2022-09-17T16:18:42.556Z,98389.94
2022-09-17T16:21:11.219Z,98385.34
2022-09-17T16:23:37.966Z,98373.91
2022-09-17T16:26:06.431Z,98379.75
2022-09-17T16:28:34.395Z,98385.06
2022-09-17T16:31:01.326Z,98371.38
2022-09-17T16:33:28.354Z,98367.63
2022-09-17T16:35:59.271Z,98381.69
2022-09-17T16:38:26.547Z,98384.16
2022-09-17T16:40:53.113Z,98383.63
2022-09-17T16:43:19.771Z,98388.38
2022-09-17T16:46:03.789Z,98389.34
2022-09-17T16:48:31.294Z,98387.41
2022-09-17T16:50:57.871Z,98391.13
2022-09-17T16:53:24.820Z,98390.16
2022-09-17T16:55:51.388Z,98381.94
2022-09-17T16:58:18.010Z,98390.53
2022-09-17T17:00:44.945Z,98387.50
2022-09-17T17:03:15.421Z,98381.78
2022-09-17T17:05:43.298Z,98393.06
2022-09-17T17:08:10.553Z,98384.53
2022-09-17T17:10:40.334Z,98388.84
2022-09-17T17:13:06.986Z,98384.81
2022-09-17T17:15:34.010Z,98390.22
2022-09-17T17:18:00.721Z,98383.56
2022-09-17T17:20:27.385Z,98388.25
2022-09-17T17:22:55.350Z,98386.28
2022-09-17T17:25:23.733Z,98400.09
2022-09-17T17:27:50.477Z,98393.81
2022-09-17T17:30:17.688Z,98395.75
2022-09-17T17:32:48.942Z,98394.91
2022-09-17T17:35:15.720Z,98407.31
2022-09-17T17:37:42.879Z,98412.72
2022-09-17T17:40:10.408Z,98404.09
2022-09-17T17:42:39.532Z,98406.59
2022-09-17T17:45:07.726Z,98407.97
2022-09-17T17:47:34.607Z,98412.16
2022-09-17T17:50:01.250Z,98411.31
2022-09-17T17:52:28.095Z,98395.31
2022-09-17T17:54:54.997Z,98396.28
2022-09-17T17:57:21.680Z,98398.50
2022-09-17T17:59:48.187Z,98396.81
2022-09-17T18:02:14.879Z,98397.78
2022-09-17T18:04:41.555Z,98400.13
2022-09-17T18:07:08.182Z,98410.56
2022-09-17T18:09:35.371Z,98412.50
2022-09-17T18:12:02.219Z,98408.63
2022-09-17T18:14:28.799Z,98410.28
2022-09-17T18:16:55.413Z,98409.06
2022-09-17T18:19:22.077Z,98415.22
2022-09-17T18:21:48.677Z,98410.75
2022-09-17T18:24:15.324Z,98414.50
2022-09-17T18:26:41.900Z,98423.81
2022-09-17T18:29:09.429Z,98424.53
2022-09-17T18:31:37.814Z,98420.81
2022-09-17T18:34:14.250Z,98423.44
2022-09-17T18:36:42.225Z,98427.75
2022-09-17T18:39:56.897Z,98433.63
2022-09-17T18:42:01.292Z,98432.78
2022-09-17T18:44:27.907Z,98434.19
2022-09-17T18:46:54.560Z,98435.00
2022-09-17T18:49:21.248Z,98442.81
2022-09-17T18:51:47.876Z,98436.13
2022-09-17T18:54:14.937Z,98431.41
2022-09-17T18:56:41.852Z,98441.16
2022-09-17T18:59:09.697Z,98439.75
2022-09-17T19:01:36.657Z,98439.88
2022-09-17T19:04:03.937Z,98447.94
2022-09-17T19:06:32.089Z,98450.97
2022-09-17T19:09:03.770Z,98444.41
2022-09-17T19:11:30.531Z,98450.78
2022-09-17T19:13:57.590Z,98454.41
2022-09-17T19:16:24.319Z,98456.19
2022-09-17T19:18:51.521Z,98463.16
2022-09-17T19:21:20.660Z,98464.13
2022-09-17T19:23:49.905Z,98460.81
2022-09-17T19:26:19.249Z,98455.22
2022-09-17T19:28:46.421Z,98462.72
2022-09-17T19:31:15.607Z,98455.31
2022-09-17T19:33:43.024Z,98457.00
2022-09-17T19:36:15.477Z,98465.19
2022-09-17T19:38:42.835Z,98461.25
2022-09-17T19:41:15.670Z,98464.72
2022-09-17T19:43:42.455Z,98465.44
2022-09-17T19:46:15.447Z,98474.09
2022-09-17T19:48:47.084Z,98474.09
2022-09-17T19:51:13.944Z,98468.28
2022-09-17T19:53:41.669Z,98483.16
2022-09-17T19:56:12.795Z,98485.81
2022-09-17T19:58:39.613Z,98480.28
2022-09-17T20:01:06.647Z,98478.59
2022-09-17T20:03:33.397Z,98471.63
2022-09-17T20:06:00.979Z,98482.72
2022-09-17T20:08:28.404Z,98474.66
2022-09-17T20:10:55.104Z,98474.09
2022-09-17T20:13:22.730Z,98470.03
2022-09-17T20:15:49.387Z,98485.75
2022-09-17T20:18:21.174Z,98473.38
2022-09-17T20:20:50.075Z,98473.25
2022-09-17T20:23:16.705Z,98474.09
2022-09-17T20:25:44.656Z,98474.94
2022-09-17T20:28:11.202Z,98480.47
2022-09-17T20:30:37.824Z,98479.63
2022-09-17T20:33:04.380Z,98472.41
2022-09-17T20:35:30.968Z,98485.19
2022-09-17T20:40:44.542Z,98481.03
2022-09-17T20:43:11.080Z,98480.34
2022-09-17T20:45:37.798Z,98482.72
2022-09-17T20:48:04.452Z,98479.94
2022-09-17T20:50:31.179Z,98475.50
2022-09-17T20:52:57.805Z,98482.47
2022-09-17T20:55:24.480Z,98482.72
2022-09-17T20:57:54.108Z,98491.88
2022-09-17T21:00:21.687Z,98495.25
2022-09-17T21:02:52.555Z,98490.91
2022-09-17T21:05:19.226Z,98498.84
2022-09-17T21:07:45.824Z,98495.25
2022-09-17T21:10:13.527Z,98502.47
2022-09-17T21:12:40.121Z,98500.25
2022-09-17T21:15:06.964Z,98490.66
2022-09-17T21:17:33.980Z,98498.56
2022-09-17T21:20:00.645Z,98493.88
2022-09-17T21:22:27.245Z,98494.44
2022-09-17T21:24:53.768Z,98494.56
2022-09-17T21:27:20.382Z,98500.25
2022-09-17T21:29:46.973Z,98499.41
2022-09-17T21:32:13.552Z,98502.19
2022-09-17T21:34:40.339Z,98501.22
2022-09-17T21:37:06.859Z,98494.13
2022-09-17T21:39:35.215Z,98497.88
2022-09-17T21:42:01.785Z,98512.06
2022-09-17T21:44:28.413Z,98513.59
2022-09-17T21:46:57.670Z,98502.47
2022-09-17T21:49:25.099Z,98501.84
2022-09-17T21:51:52.098Z,98505.34
2022-09-17T21:54:18.908Z,98499.59
2022-09-17T21:56:46.663Z,98501.28
2022-09-17T21:59:15.368Z,98499.03
2022-09-17T22:01:46.567Z,98502.66
2022-09-17T22:04:16.123Z,98505.28
2022-09-17T22:06:44.292Z,98498.19
2022-09-17T22:09:17.673Z,98510.69
2022-09-17T22:11:45.310Z,98502.75
2022-09-17T22:14:24.197Z,98500.84
2022-09-17T22:16:55.728Z,98499.03
2022-09-17T22:19:23.755Z,98510.44
2022-09-17T22:21:55.354Z,98507.97
2022-09-17T22:24:23.251Z,98507.75
2022-09-17T22:26:56.877Z,98511.09
2022-09-17T22:29:25.515Z,98514.72
2022-09-17T22:31:52.199Z,98518.63
2022-09-17T22:34:21.452Z,98528.09
2022-09-17T22:36:48.264Z,98520.31
2022-09-17T22:39:15.660Z,98526.44
2022-09-17T22:41:45.874Z,98518.97
2022-09-17T22:44:20.030Z,98516.03
2022-09-17T22:46:48.889Z,98524.25
2022-09-17T22:49:16.294Z,98529.66
2022-09-17T22:51:43.623Z,98526.06
2022-09-17T22:54:12.109Z,98528.56
2022-09-17T22:56:38.909Z,98528.25
2022-09-17T22:59:05.606Z,98531.75
2022-09-17T23:01:34.064Z,98531.47
2022-09-17T23:04:01.281Z,98538.69
2022-09-17T23:06:35.741Z,98537.03
2022-09-17T23:09:02.976Z,98531.47
2022-09-17T23:11:32.292Z,98527.84
2022-09-17T23:14:02.270Z,98528.09
2022-09-17T23:16:34.016Z,98540.34
2022-09-17T23:19:00.680Z,98545.41
2022-09-17T23:21:27.283Z,98542.88
2022-09-17T23:23:53.810Z,98547.09
2022-09-17T23:26:23.508Z,98552.09
2022-09-17T23:28:50.642Z,98543.22
2022-09-17T23:31:20.618Z,98541.28
2022-09-17T23:33:48.449Z,98547.41
2022-09-17T23:36:21.752Z,98542.97
2022-09-17T23:38:49.113Z,98545.44
2022-09-17T23:41:15.674Z,98548.81
2022-09-17T23:43:43.113Z,98546.06
2022-09-17T23:46:10.283Z,98550.19
2022-09-17T23:48:37.449Z,98547.41
2022-09-17T23:51:05.366Z,98556.31
2022-09-17T23:53:33.681Z,98552.09
2022-09-17T23:56:01.142Z,98549.06
2022-09-17T23:58:31.421Z,98549.06
